sensor_id;sensor_type;location;lat;lon;timestamp;P1;durP1;ratioP1;P2;durP2;ratioP2
80199;SDS011;69520;44.900;-0.764;2024-02-26T00:00:38;19.50;;;2.33;;
80199;SDS011;69520;44.900;-0.764;2024-02-26T00:03:04;21.52;;;2.53;;
80199;SDS011;69520;44.900;-0.764;2024-02-26T00:05:30;16.00;;;2.10;;
80199;SDS011;69520;44.900;-0.764;2024-02-26T00:07:56;17.73;;;2.15;;
80199;SDS011;69520;44.900;-0.764;2024-02-26T00:10:22;17.02;;;2.53;;
80199;SDS011;69520;44.900;-0.764;2024-02-26T00:12:49;21.95;;;2.83;;
80199;SDS011;69520;44.900;-0.764;2024-02-26T00:15:15;23.35;;;2.75;;
80199;SDS011;69520;44.900;-0.764;2024-02-26T00:17:41;20.73;;;2.40;;
80199;SDS011;69520;44.900;-0.764;2024-02-26T00:20:07;13.90;;;2.40;;
80199;SDS011;69520;44.900;-0.764;2024-02-26T00:22:34;21.90;;;2.47;;
80199;SDS011;69520;44.900;-0.764;2024-02-26T00:25:00;16.83;;;1.75;;
80199;SDS011;69520;44.900;-0.764;2024-02-26T00:27:26;20.10;;;2.28;;
80199;SDS011;69520;44.900;-0.764;2024-02-26T00:29:52;17.13;;;1.97;;
80199;SDS011;69520;44.900;-0.764;2024-02-26T00:32:18;15.02;;;2.33;;
80199;SDS011;69520;44.900;-0.764;2024-02-26T00:34:44;17.90;;;1.98;;
80199;SDS011;69520;44.900;-0.764;2024-02-26T00:37:10;23.60;;;2.38;;
80199;SDS011;69520;44.900;-0.764;2024-02-26T00:39:36;16.92;;;2.33;;
80199;SDS011;69520;44.900;-0.764;2024-02-26T00:42:02;20.47;;;2.43;;
80199;SDS011;69520;44.900;-0.764;2024-02-26T00:44:28;24.02;;;3.88;;
80199;SDS011;69520;44.900;-0.764;2024-02-26T00:46:54;20.38;;;2.75;;
80199;SDS011;69520;44.900;-0.764;2024-02-26T00:49:20;19.55;;;2.80;;
80199;SDS011;69520;44.900;-0.764;2024-02-26T00:51:46;19.98;;;2.15;;
80199;SDS011;69520;44.900;-0.764;2024-02-26T00:54:12;19.93;;;2.10;;
80199;SDS011;69520;44.900;-0.764;2024-02-26T00:56:38;14.23;;;1.75;;
80199;SDS011;69520;44.900;-0.764;2024-02-26T00:59:04;18.30;;;1.75;;
80199;SDS011;69520;44.900;-0.764;2024-02-26T01:01:33;19.08;;;2.08;;
80199;SDS011;69520;44.900;-0.764;2024-02-26T01:04:00;17.58;;;1.95;;
80199;SDS011;69520;44.900;-0.764;2024-02-26T01:06:26;15.13;;;1.70;;
80199;SDS011;69520;44.900;-0.764;2024-02-26T01:08:52;13.00;;;1.40;;
80199;SDS011;69520;44.900;-0.764;2024-02-26T01:11:18;19.38;;;2.30;;
80199;SDS011;69520;44.900;-0.764;2024-02-26T01:13:44;15.45;;;1.50;;
80199;SDS011;69520;44.900;-0.764;2024-02-26T01:16:10;19.20;;;2.30;;
80199;SDS011;69520;44.900;-0.764;2024-02-26T01:18:36;14.97;;;1.60;;
80199;SDS011;69520;44.900;-0.764;2024-02-26T01:21:02;16.50;;;2.17;;
80199;SDS011;69520;44.900;-0.764;2024-02-26T01:23:31;13.13;;;1.65;;
80199;SDS011;69520;44.900;-0.764;2024-02-26T01:25:57;15.88;;;1.80;;
80199;SDS011;69520;44.900;-0.764;2024-02-26T01:28:23;22.70;;;2.75;;
80199;SDS011;69520;44.900;-0.764;2024-02-26T01:30:49;21.93;;;2.40;;
80199;SDS011;69520;44.900;-0.764;2024-02-26T01:33:15;16.30;;;2.00;;
80199;SDS011;69520;44.900;-0.764;2024-02-26T01:35:41;19.55;;;2.42;;
80199;SDS011;69520;44.900;-0.764;2024-02-26T01:38:07;14.30;;;1.85;;
80199;SDS011;69520;44.900;-0.764;2024-02-26T01:40:33;16.65;;;2.25;;
80199;SDS011;69520;44.900;-0.764;2024-02-26T01:42:59;21.23;;;2.37;;
80199;SDS011;69520;44.900;-0.764;2024-02-26T01:45:26;14.65;;;1.67;;
80199;SDS011;69520;44.900;-0.764;2024-02-26T01:47:53;17.65;;;2.05;;
80199;SDS011;69520;44.900;-0.764;2024-02-26T01:50:20;17.00;;;1.95;;
80199;SDS011;69520;44.900;-0.764;2024-02-26T01:52:49;14.95;;;1.73;;
80199;SDS011;69520;44.900;-0.764;2024-02-26T01:55:16;20.97;;;1.87;;
80199;SDS011;69520;44.900;-0.764;2024-02-26T01:57:43;13.00;;;2.53;;
80199;SDS011;69520;44.900;-0.764;2024-02-26T02:00:10;14.00;;;1.98;;
80199;SDS011;69520;44.900;-0.764;2024-02-26T02:02:36;15.20;;;1.40;;
80199;SDS011;69520;44.900;-0.764;2024-02-26T02:05:03;11.98;;;1.55;;
80199;SDS011;69520;44.900;-0.764;2024-02-26T02:07:30;11.40;;;1.70;;
80199;SDS011;69520;44.900;-0.764;2024-02-26T02:09:56;16.67;;;1.45;;
80199;SDS011;69520;44.900;-0.764;2024-02-26T02:12:23;9.40;;;1.30;;
80199;SDS011;69520;44.900;-0.764;2024-02-26T02:14:49;10.27;;;1.33;;
80199;SDS011;69520;44.900;-0.764;2024-02-26T02:17:15;19.90;;;1.73;;
80199;SDS011;69520;44.900;-0.764;2024-02-26T02:19:41;13.53;;;1.30;;
80199;SDS011;69520;44.900;-0.764;2024-02-26T02:22:07;19.48;;;2.72;;
80199;SDS011;69520;44.900;-0.764;2024-02-26T02:24:33;15.90;;;2.00;;
80199;SDS011;69520;44.900;-0.764;2024-02-26T02:26:59;15.75;;;1.52;;
80199;SDS011;69520;44.900;-0.764;2024-02-26T02:29:25;12.52;;;1.90;;
80199;SDS011;69520;44.900;-0.764;2024-02-26T02:31:52;18.17;;;2.13;;
80199;SDS011;69520;44.900;-0.764;2024-02-26T02:34:19;14.68;;;1.95;;
80199;SDS011;69520;44.900;-0.764;2024-02-26T02:36:52;13.68;;;1.55;;
80199;SDS011;69520;44.900;-0.764;2024-02-26T02:39:18;19.15;;;2.22;;
80199;SDS011;69520;44.900;-0.764;2024-02-26T02:41:44;17.92;;;2.70;;
80199;SDS011;69520;44.900;-0.764;2024-02-26T02:44:10;22.53;;;2.60;;
80199;SDS011;69520;44.900;-0.764;2024-02-26T02:46:36;23.45;;;2.33;;
80199;SDS011;69520;44.900;-0.764;2024-02-26T02:49:02;14.35;;;1.65;;
80199;SDS011;69520;44.900;-0.764;2024-02-26T02:51:28;17.33;;;2.35;;
80199;SDS011;69520;44.900;-0.764;2024-02-26T02:53:54;13.98;;;1.88;;
80199;SDS011;69520;44.900;-0.764;2024-02-26T02:56:20;15.53;;;2.30;;
80199;SDS011;69520;44.900;-0.764;2024-02-26T02:58:46;14.82;;;1.58;;
80199;SDS011;69520;44.900;-0.764;2024-02-26T03:01:13;16.15;;;1.90;;
80199;SDS011;69520;44.900;-0.764;2024-02-26T03:03:39;15.88;;;1.90;;
80199;SDS011;69520;44.900;-0.764;2024-02-26T03:06:05;13.90;;;1.40;;
80199;SDS011;69520;44.900;-0.764;2024-02-26T03:08:31;19.97;;;2.83;;
80199;SDS011;69520;44.900;-0.764;2024-02-26T03:10:58;15.35;;;1.83;;
80199;SDS011;69520;44.900;-0.764;2024-02-26T03:13:24;14.27;;;1.80;;
80199;SDS011;69520;44.900;-0.764;2024-02-26T03:15:50;16.63;;;1.75;;
80199;SDS011;69520;44.900;-0.764;2024-02-26T03:18:16;14.70;;;1.33;;
80199;SDS011;69520;44.900;-0.764;2024-02-26T03:20:42;14.63;;;2.03;;
80199;SDS011;69520;44.900;-0.764;2024-02-26T03:23:08;14.23;;;1.42;;
80199;SDS011;69520;44.900;-0.764;2024-02-26T03:25:37;16.48;;;2.00;;
80199;SDS011;69520;44.900;-0.764;2024-02-26T03:28:03;7.90;;;1.15;;
80199;SDS011;69520;44.900;-0.764;2024-02-26T03:30:30;9.25;;;1.10;;
80199;SDS011;69520;44.900;-0.764;2024-02-26T03:32:56;12.00;;;1.10;;
80199;SDS011;69520;44.900;-0.764;2024-02-26T03:35:22;11.43;;;1.48;;
80199;SDS011;69520;44.900;-0.764;2024-02-26T03:37:48;10.90;;;1.13;;
80199;SDS011;69520;44.900;-0.764;2024-02-26T03:40:16;11.73;;;1.42;;
80199;SDS011;69520;44.900;-0.764;2024-02-26T03:42:44;13.55;;;2.20;;
80199;SDS011;69520;44.900;-0.764;2024-02-26T03:45:10;12.37;;;1.73;;
80199;SDS011;69520;44.900;-0.764;2024-02-26T03:47:37;16.88;;;2.13;;
80199;SDS011;69520;44.900;-0.764;2024-02-26T03:50:05;13.10;;;1.60;;
80199;SDS011;69520;44.900;-0.764;2024-02-26T03:52:32;13.57;;;1.30;;
80199;SDS011;69520;44.900;-0.764;2024-02-26T03:54:58;10.82;;;1.50;;
80199;SDS011;69520;44.900;-0.764;2024-02-26T03:57:24;20.17;;;1.73;;
80199;SDS011;69520;44.900;-0.764;2024-02-26T03:59:50;12.85;;;1.40;;
80199;SDS011;69520;44.900;-0.764;2024-02-26T04:02:16;15.18;;;1.60;;
80199;SDS011;69520;44.900;-0.764;2024-02-26T04:04:44;16.63;;;2.03;;
80199;SDS011;69520;44.900;-0.764;2024-02-26T04:07:10;15.60;;;1.92;;
80199;SDS011;69520;44.900;-0.764;2024-02-26T04:09:36;16.40;;;1.67;;
80199;SDS011;69520;44.900;-0.764;2024-02-26T04:12:03;17.98;;;1.98;;
80199;SDS011;69520;44.900;-0.764;2024-02-26T04:14:29;15.98;;;1.48;;
80199;SDS011;69520;44.900;-0.764;2024-02-26T04:16:55;18.15;;;2.33;;
80199;SDS011;69520;44.900;-0.764;2024-02-26T04:19:21;15.95;;;1.85;;
80199;SDS011;69520;44.900;-0.764;2024-02-26T04:21:47;13.33;;;1.40;;
80199;SDS011;69520;44.900;-0.764;2024-02-26T04:24:13;18.63;;;1.50;;
80199;SDS011;69520;44.900;-0.764;2024-02-26T04:26:39;16.65;;;2.05;;
80199;SDS011;69520;44.900;-0.764;2024-02-26T04:29:05;15.20;;;1.83;;
80199;SDS011;69520;44.900;-0.764;2024-02-26T04:31:31;15.95;;;1.73;;
80199;SDS011;69520;44.900;-0.764;2024-02-26T04:33:58;14.73;;;2.30;;
80199;SDS011;69520;44.900;-0.764;2024-02-26T04:36:24;17.15;;;1.88;;
80199;SDS011;69520;44.900;-0.764;2024-02-26T04:38:51;19.60;;;2.20;;
80199;SDS011;69520;44.900;-0.764;2024-02-26T04:41:19;16.55;;;2.35;;
80199;SDS011;69520;44.900;-0.764;2024-02-26T04:43:45;20.50;;;2.00;;
80199;SDS011;69520;44.900;-0.764;2024-02-26T04:46:11;16.07;;;1.80;;
80199;SDS011;69520;44.900;-0.764;2024-02-26T04:48:37;20.50;;;2.00;;
80199;SDS011;69520;44.900;-0.764;2024-02-26T04:51:03;13.18;;;1.75;;
80199;SDS011;69520;44.900;-0.764;2024-02-26T04:53:30;13.63;;;1.75;;
80199;SDS011;69520;44.900;-0.764;2024-02-26T04:55:56;13.68;;;1.70;;
80199;SDS011;69520;44.900;-0.764;2024-02-26T04:58:22;17.40;;;2.13;;
80199;SDS011;69520;44.900;-0.764;2024-02-26T05:00:48;15.70;;;1.38;;
80199;SDS011;69520;44.900;-0.764;2024-02-26T05:03:14;17.13;;;2.33;;
80199;SDS011;69520;44.900;-0.764;2024-02-26T05:05:43;14.73;;;1.98;;
80199;SDS011;69520;44.900;-0.764;2024-02-26T05:08:09;16.30;;;2.05;;
80199;SDS011;69520;44.900;-0.764;2024-02-26T05:10:37;19.17;;;2.00;;
80199;SDS011;69520;44.900;-0.764;2024-02-26T05:13:06;13.98;;;1.70;;
80199;SDS011;69520;44.900;-0.764;2024-02-26T05:15:32;12.77;;;1.65;;
80199;SDS011;69520;44.900;-0.764;2024-02-26T05:17:58;18.52;;;1.80;;
80199;SDS011;69520;44.900;-0.764;2024-02-26T05:20:24;13.70;;;1.83;;
80199;SDS011;69520;44.900;-0.764;2024-02-26T05:22:50;18.20;;;2.67;;
80199;SDS011;69520;44.900;-0.764;2024-02-26T05:25:17;14.32;;;1.45;;
80199;SDS011;69520;44.900;-0.764;2024-02-26T05:27:43;21.52;;;2.60;;
80199;SDS011;69520;44.900;-0.764;2024-02-26T05:30:10;21.10;;;2.15;;
80199;SDS011;69520;44.900;-0.764;2024-02-26T05:32:36;16.17;;;1.90;;
80199;SDS011;69520;44.900;-0.764;2024-02-26T05:35:02;16.10;;;1.80;;
80199;SDS011;69520;44.900;-0.764;2024-02-26T05:37:28;9.45;;;1.10;;
80199;SDS011;69520;44.900;-0.764;2024-02-26T05:39:54;9.88;;;1.30;;
80199;SDS011;69520;44.900;-0.764;2024-02-26T05:42:20;17.35;;;1.52;;
80199;SDS011;69520;44.900;-0.764;2024-02-26T05:44:47;10.05;;;1.60;;
80199;SDS011;69520;44.900;-0.764;2024-02-26T05:47:13;16.10;;;2.40;;
80199;SDS011;69520;44.900;-0.764;2024-02-26T05:49:39;12.43;;;1.42;;
80199;SDS011;69520;44.900;-0.764;2024-02-26T05:52:05;15.75;;;1.98;;
80199;SDS011;69520;44.900;-0.764;2024-02-26T05:54:32;18.98;;;2.38;;
80199;SDS011;69520;44.900;-0.764;2024-02-26T05:56:58;18.75;;;1.83;;
80199;SDS011;69520;44.900;-0.764;2024-02-26T05:59:24;17.93;;;2.00;;
80199;SDS011;69520;44.900;-0.764;2024-02-26T06:01:50;14.48;;;2.80;;
80199;SDS011;69520;44.900;-0.764;2024-02-26T06:04:16;15.80;;;2.47;;
80199;SDS011;69520;44.900;-0.764;2024-02-26T06:06:44;17.95;;;2.47;;
80199;SDS011;69520;44.900;-0.764;2024-02-26T06:09:11;20.90;;;2.97;;
80199;SDS011;69520;44.900;-0.764;2024-02-26T06:11:37;18.43;;;2.67;;
80199;SDS011;69520;44.900;-0.764;2024-02-26T06:14:03;16.42;;;2.08;;
80199;SDS011;69520;44.900;-0.764;2024-02-26T06:16:29;23.20;;;2.97;;
80199;SDS011;69520;44.900;-0.764;2024-02-26T06:18:55;19.75;;;2.28;;
80199;SDS011;69520;44.900;-0.764;2024-02-26T06:21:22;21.02;;;2.80;;
80199;SDS011;69520;44.900;-0.764;2024-02-26T06:23:48;18.20;;;2.27;;
80199;SDS011;69520;44.900;-0.764;2024-02-26T06:26:15;14.10;;;2.00;;
80199;SDS011;69520;44.900;-0.764;2024-02-26T06:28:41;18.50;;;2.75;;
80199;SDS011;69520;44.900;-0.764;2024-02-26T06:31:07;14.85;;;1.88;;
80199;SDS011;69520;44.900;-0.764;2024-02-26T06:33:33;20.90;;;2.17;;
80199;SDS011;69520;44.900;-0.764;2024-02-26T06:36:00;13.87;;;2.07;;
80199;SDS011;69520;44.900;-0.764;2024-02-26T06:38:26;16.55;;;2.22;;
80199;SDS011;69520;44.900;-0.764;2024-02-26T06:40:51;19.60;;;2.55;;
80199;SDS011;69520;44.900;-0.764;2024-02-26T06:43:18;15.20;;;1.90;;
80199;SDS011;69520;44.900;-0.764;2024-02-26T06:45:43;15.65;;;1.85;;
80199;SDS011;69520;44.900;-0.764;2024-02-26T06:48:10;17.97;;;2.07;;
80199;SDS011;69520;44.900;-0.764;2024-02-26T06:50:36;19.45;;;2.53;;
80199;SDS011;69520;44.900;-0.764;2024-02-26T06:53:02;13.35;;;2.05;;
80199;SDS011;69520;44.900;-0.764;2024-02-26T06:55:28;18.02;;;2.03;;
80199;SDS011;69520;44.900;-0.764;2024-02-26T06:57:54;13.00;;;1.60;;
80199;SDS011;69520;44.900;-0.764;2024-02-26T07:00:20;14.60;;;1.97;;
80199;SDS011;69520;44.900;-0.764;2024-02-26T07:02:46;12.23;;;1.50;;
80199;SDS011;69520;44.900;-0.764;2024-02-26T07:05:12;12.43;;;1.60;;
80199;SDS011;69520;44.900;-0.764;2024-02-26T07:07:38;12.60;;;1.85;;
80199;SDS011;69520;44.900;-0.764;2024-02-26T07:10:05;14.98;;;1.80;;
80199;SDS011;69520;44.900;-0.764;2024-02-26T07:12:31;14.00;;;1.50;;
80199;SDS011;69520;44.900;-0.764;2024-02-26T07:14:57;17.92;;;1.80;;
80199;SDS011;69520;44.900;-0.764;2024-02-26T07:17:23;11.75;;;1.25;;
80199;SDS011;69520;44.900;-0.764;2024-02-26T07:19:49;14.50;;;1.77;;
80199;SDS011;69520;44.900;-0.764;2024-02-26T07:22:15;13.50;;;1.27;;
80199;SDS011;69520;44.900;-0.764;2024-02-26T07:24:41;15.27;;;1.40;;
80199;SDS011;69520;44.900;-0.764;2024-02-26T07:27:07;13.77;;;1.60;;
80199;SDS011;69520;44.900;-0.764;2024-02-26T07:29:33;10.55;;;1.10;;
80199;SDS011;69520;44.900;-0.764;2024-02-26T07:31:59;10.45;;;1.13;;
80199;SDS011;69520;44.900;-0.764;2024-02-26T07:34:25;12.23;;;1.50;;
80199;SDS011;69520;44.900;-0.764;2024-02-26T07:36:55;14.03;;;2.10;;
80199;SDS011;69520;44.900;-0.764;2024-02-26T07:39:21;10.68;;;1.00;;
80199;SDS011;69520;44.900;-0.764;2024-02-26T07:41:47;15.85;;;2.10;;
80199;SDS011;69520;44.900;-0.764;2024-02-26T07:44:16;12.52;;;1.20;;
80199;SDS011;69520;44.900;-0.764;2024-02-26T07:46:42;10.15;;;1.20;;
80199;SDS011;69520;44.900;-0.764;2024-02-26T07:49:08;9.27;;;1.03;;
80199;SDS011;69520;44.900;-0.764;2024-02-26T07:51:34;10.07;;;1.02;;
80199;SDS011;69520;44.900;-0.764;2024-02-26T07:54:00;11.70;;;1.33;;
80199;SDS011;69520;44.900;-0.764;2024-02-26T07:56:26;10.10;;;1.20;;
80199;SDS011;69520;44.900;-0.764;2024-02-26T07:58:52;9.32;;;1.50;;
80199;SDS011;69520;44.900;-0.764;2024-02-26T08:01:18;7.20;;;1.47;;
80199;SDS011;69520;44.900;-0.764;2024-02-26T08:03:44;11.80;;;1.10;;
80199;SDS011;69520;44.900;-0.764;2024-02-26T08:06:10;7.07;;;0.88;;
80199;SDS011;69520;44.900;-0.764;2024-02-26T08:08:36;11.45;;;1.08;;
80199;SDS011;69520;44.900;-0.764;2024-02-26T08:11:03;10.55;;;0.82;;
80199;SDS011;69520;44.900;-0.764;2024-02-26T08:13:29;7.03;;;0.67;;
80199;SDS011;69520;44.900;-0.764;2024-02-26T08:15:55;6.40;;;0.70;;
80199;SDS011;69520;44.900;-0.764;2024-02-26T08:18:21;5.03;;;0.70;;
80199;SDS011;69520;44.900;-0.764;2024-02-26T08:20:47;5.18;;;0.45;;
80199;SDS011;69520;44.900;-0.764;2024-02-26T08:23:14;7.60;;;0.70;;
80199;SDS011;69520;44.900;-0.764;2024-02-26T08:25:40;5.37;;;0.47;;
80199;SDS011;69520;44.900;-0.764;2024-02-26T08:28:06;5.07;;;0.60;;
80199;SDS011;69520;44.900;-0.764;2024-02-26T08:30:32;7.47;;;1.20;;
80199;SDS011;69520;44.900;-0.764;2024-02-26T08:32:59;7.57;;;0.95;;
80199;SDS011;69520;44.900;-0.764;2024-02-26T08:35:25;6.40;;;0.90;;
80199;SDS011;69520;44.900;-0.764;2024-02-26T08:37:51;4.90;;;0.50;;
80199;SDS011;69520;44.900;-0.764;2024-02-26T08:40:17;5.35;;;0.43;;
80199;SDS011;69520;44.900;-0.764;2024-02-26T08:42:44;8.25;;;0.80;;
80199;SDS011;69520;44.900;-0.764;2024-02-26T08:45:10;3.65;;;0.70;;
80199;SDS011;69520;44.900;-0.764;2024-02-26T08:47:37;8.55;;;0.70;;
80199;SDS011;69520;44.900;-0.764;2024-02-26T08:50:03;4.53;;;0.73;;
80199;SDS011;69520;44.900;-0.764;2024-02-26T08:52:30;8.88;;;1.48;;
80199;SDS011;69520;44.900;-0.764;2024-02-26T08:54:56;9.90;;;1.40;;
80199;SDS011;69520;44.900;-0.764;2024-02-26T08:57:22;7.18;;;1.35;;
80199;SDS011;69520;44.900;-0.764;2024-02-26T08:59:48;9.35;;;1.90;;
80199;SDS011;69520;44.900;-0.764;2024-02-26T09:02:16;13.07;;;1.87;;
80199;SDS011;69520;44.900;-0.764;2024-02-26T09:04:42;9.85;;;1.20;;
80199;SDS011;69520;44.900;-0.764;2024-02-26T09:07:08;11.93;;;3.03;;
80199;SDS011;69520;44.900;-0.764;2024-02-26T09:09:34;11.23;;;4.25;;
80199;SDS011;69520;44.900;-0.764;2024-02-26T09:12:00;9.98;;;3.33;;
80199;SDS011;69520;44.900;-0.764;2024-02-26T09:14:27;7.50;;;1.47;;
80199;SDS011;69520;44.900;-0.764;2024-02-26T09:16:52;6.25;;;0.70;;
80199;SDS011;69520;44.900;-0.764;2024-02-26T09:19:18;4.63;;;0.43;;
80199;SDS011;69520;44.900;-0.764;2024-02-26T09:21:45;6.30;;;0.85;;
80199;SDS011;69520;44.900;-0.764;2024-02-26T09:24:11;2.13;;;0.20;;
80199;SDS011;69520;44.900;-0.764;2024-02-26T09:26:37;4.73;;;0.43;;
80199;SDS011;69520;44.900;-0.764;2024-02-26T09:29:03;4.28;;;0.60;;
80199;SDS011;69520;44.900;-0.764;2024-02-26T09:31:30;4.35;;;0.60;;
80199;SDS011;69520;44.900;-0.764;2024-02-26T09:33:56;4.15;;;0.43;;
80199;SDS011;69520;44.900;-0.764;2024-02-26T09:36:23;3.92;;;0.52;;
80199;SDS011;69520;44.900;-0.764;2024-02-26T09:38:49;4.60;;;0.30;;
80199;SDS011;69520;44.900;-0.764;2024-02-26T09:41:15;2.97;;;0.30;;
80199;SDS011;69520;44.900;-0.764;2024-02-26T09:43:42;5.72;;;0.50;;
80199;SDS011;69520;44.900;-0.764;2024-02-26T09:46:11;6.68;;;1.02;;
80199;SDS011;69520;44.900;-0.764;2024-02-26T09:48:37;6.70;;;0.70;;
80199;SDS011;69520;44.900;-0.764;2024-02-26T09:51:03;5.67;;;0.60;;
80199;SDS011;69520;44.900;-0.764;2024-02-26T09:53:30;4.13;;;0.50;;
80199;SDS011;69520;44.900;-0.764;2024-02-26T09:55:59;3.55;;;0.60;;
80199;SDS011;69520;44.900;-0.764;2024-02-26T09:58:27;4.82;;;0.80;;
80199;SDS011;69520;44.900;-0.764;2024-02-26T10:00:55;7.50;;;1.67;;
80199;SDS011;69520;44.900;-0.764;2024-02-26T10:03:25;8.07;;;1.77;;
80199;SDS011;69520;44.900;-0.764;2024-02-26T10:05:54;7.30;;;1.30;;
80199;SDS011;69520;44.900;-0.764;2024-02-26T10:08:20;7.90;;;1.30;;
80199;SDS011;69520;44.900;-0.764;2024-02-26T10:10:47;8.50;;;1.10;;
80199;SDS011;69520;44.900;-0.764;2024-02-26T10:13:13;7.75;;;1.58;;
80199;SDS011;69520;44.900;-0.764;2024-02-26T10:15:40;9.33;;;1.60;;
80199;SDS011;69520;44.900;-0.764;2024-02-26T10:18:06;8.15;;;1.40;;
80199;SDS011;69520;44.900;-0.764;2024-02-26T10:20:32;9.18;;;1.85;;
80199;SDS011;69520;44.900;-0.764;2024-02-26T10:22:58;8.38;;;1.10;;
80199;SDS011;69520;44.900;-0.764;2024-02-26T10:25:24;7.13;;;1.20;;
80199;SDS011;69520;44.900;-0.764;2024-02-26T10:27:50;10.73;;;1.30;;
80199;SDS011;69520;44.900;-0.764;2024-02-26T10:30:17;9.20;;;1.00;;
80199;SDS011;69520;44.900;-0.764;2024-02-26T10:32:44;5.80;;;0.70;;
80199;SDS011;69520;44.900;-0.764;2024-02-26T10:35:11;7.65;;;0.90;;
80199;SDS011;69520;44.900;-0.764;2024-02-26T10:37:38;7.07;;;0.60;;
80199;SDS011;69520;44.900;-0.764;2024-02-26T10:40:05;5.17;;;0.70;;
80199;SDS011;69520;44.900;-0.764;2024-02-26T10:42:32;8.95;;;0.77;;
80199;SDS011;69520;44.900;-0.764;2024-02-26T10:44:58;4.25;;;0.50;;
80199;SDS011;69520;44.900;-0.764;2024-02-26T10:47:24;6.03;;;0.50;;
80199;SDS011;69520;44.900;-0.764;2024-02-26T10:49:50;5.78;;;0.75;;
80199;SDS011;69520;44.900;-0.764;2024-02-26T10:52:16;5.43;;;0.53;;
80199;SDS011;69520;44.900;-0.764;2024-02-26T10:54:45;5.70;;;0.57;;
80199;SDS011;69520;44.900;-0.764;2024-02-26T10:57:13;7.65;;;0.70;;
80199;SDS011;69520;44.900;-0.764;2024-02-26T10:59:39;4.70;;;0.73;;
80199;SDS011;69520;44.900;-0.764;2024-02-26T11:02:07;6.97;;;0.90;;
80199;SDS011;69520;44.900;-0.764;2024-02-26T11:04:34;6.00;;;0.47;;
80199;SDS011;69520;44.900;-0.764;2024-02-26T11:07:01;3.40;;;0.30;;
80199;SDS011;69520;44.900;-0.764;2024-02-26T11:09:27;6.72;;;0.50;;
80199;SDS011;69520;44.900;-0.764;2024-02-26T11:11:53;3.33;;;0.30;;
80199;SDS011;69520;44.900;-0.764;2024-02-26T11:14:20;4.40;;;0.40;;
80199;SDS011;69520;44.900;-0.764;2024-02-26T11:16:47;4.63;;;0.40;;
80199;SDS011;69520;44.900;-0.764;2024-02-26T11:19:13;8.88;;;0.40;;
80199;SDS011;69520;44.900;-0.764;2024-02-26T11:21:40;7.47;;;0.50;;
80199;SDS011;69520;44.900;-0.764;2024-02-26T11:24:13;5.15;;;0.40;;
80199;SDS011;69520;44.900;-0.764;2024-02-26T11:26:51;5.15;;;0.82;;
80199;SDS011;69520;44.900;-0.764;2024-02-26T11:29:26;3.27;;;0.50;;
80199;SDS011;69520;44.900;-0.764;2024-02-26T11:31:53;3.22;;;0.22;;
80199;SDS011;69520;44.900;-0.764;2024-02-26T11:34:19;2.10;;;0.22;;
80199;SDS011;69520;44.900;-0.764;2024-02-26T11:36:46;3.38;;;0.30;;
80199;SDS011;69520;44.900;-0.764;2024-02-26T11:39:12;4.00;;;0.47;;
80199;SDS011;69520;44.900;-0.764;2024-02-26T11:41:41;5.23;;;0.40;;
80199;SDS011;69520;44.900;-0.764;2024-02-26T11:44:07;4.88;;;0.60;;
80199;SDS011;69520;44.900;-0.764;2024-02-26T11:46:40;5.80;;;0.40;;
80199;SDS011;69520;44.900;-0.764;2024-02-26T11:51:56;3.28;;;0.28;;
80199;SDS011;69520;44.900;-0.764;2024-02-26T11:57:23;3.38;;;0.40;;
80199;SDS011;69520;44.900;-0.764;2024-02-26T11:59:50;4.15;;;0.38;;
80199;SDS011;69520;44.900;-0.764;2024-02-26T12:05:01;3.75;;;0.45;;
80199;SDS011;69520;44.900;-0.764;2024-02-26T12:07:27;1.37;;;0.20;;
80199;SDS011;69520;44.900;-0.764;2024-02-26T12:09:56;2.83;;;0.20;;
80199;SDS011;69520;44.900;-0.764;2024-02-26T12:12:38;1.33;;;0.10;;
80199;SDS011;69520;44.900;-0.764;2024-02-26T12:15:05;3.42;;;0.65;;
80199;SDS011;69520;44.900;-0.764;2024-02-26T12:17:31;3.17;;;0.30;;
80199;SDS011;69520;44.900;-0.764;2024-02-26T12:20:08;2.43;;;0.40;;
80199;SDS011;69520;44.900;-0.764;2024-02-26T12:22:34;3.45;;;0.50;;
80199;SDS011;69520;44.900;-0.764;2024-02-26T12:25:02;3.88;;;0.40;;
80199;SDS011;69520;44.900;-0.764;2024-02-26T12:27:28;4.53;;;0.50;;
80199;SDS011;69520;44.900;-0.764;2024-02-26T12:29:54;3.83;;;0.40;;
80199;SDS011;69520;44.900;-0.764;2024-02-26T12:32:20;3.03;;;0.47;;
80199;SDS011;69520;44.900;-0.764;2024-02-26T12:34:46;5.65;;;0.65;;
80199;SDS011;69520;44.900;-0.764;2024-02-26T12:37:13;2.20;;;0.47;;
80199;SDS011;69520;44.900;-0.764;2024-02-26T12:39:39;3.80;;;0.68;;
80199;SDS011;69520;44.900;-0.764;2024-02-26T12:42:05;3.28;;;0.68;;
80199;SDS011;69520;44.900;-0.764;2024-02-26T12:44:31;3.70;;;0.50;;
80199;SDS011;69520;44.900;-0.764;2024-02-26T12:47:00;4.18;;;0.40;;
80199;SDS011;69520;44.900;-0.764;2024-02-26T12:49:28;3.10;;;0.47;;
80199;SDS011;69520;44.900;-0.764;2024-02-26T12:51:54;6.28;;;0.80;;
80199;SDS011;69520;44.900;-0.764;2024-02-26T12:54:26;4.53;;;0.60;;
80199;SDS011;69520;44.900;-0.764;2024-02-26T12:56:52;4.43;;;0.70;;
80199;SDS011;69520;44.900;-0.764;2024-02-26T12:59:18;2.90;;;0.38;;
80199;SDS011;69520;44.900;-0.764;2024-02-26T13:01:44;3.08;;;0.40;;
80199;SDS011;69520;44.900;-0.764;2024-02-26T13:04:11;2.08;;;0.38;;
80199;SDS011;69520;44.900;-0.764;2024-02-26T13:06:37;4.38;;;0.47;;
80199;SDS011;69520;44.900;-0.764;2024-02-26T13:09:03;3.63;;;0.30;;
80199;SDS011;69520;44.900;-0.764;2024-02-26T13:11:29;2.47;;;0.30;;
80199;SDS011;69520;44.900;-0.764;2024-02-26T13:13:56;4.05;;;0.30;;
80199;SDS011;69520;44.900;-0.764;2024-02-26T13:16:24;3.30;;;0.22;;
80199;SDS011;69520;44.900;-0.764;2024-02-26T13:18:50;3.42;;;0.35;;
80199;SDS011;69520;44.900;-0.764;2024-02-26T13:21:18;1.50;;;0.20;;
80199;SDS011;69520;44.900;-0.764;2024-02-26T13:23:48;3.75;;;0.30;;
80199;SDS011;69520;44.900;-0.764;2024-02-26T13:26:15;4.65;;;0.40;;
80199;SDS011;69520;44.900;-0.764;2024-02-26T13:28:41;2.30;;;0.20;;
80199;SDS011;69520;44.900;-0.764;2024-02-26T13:31:07;4.38;;;0.52;;
80199;SDS011;69520;44.900;-0.764;2024-02-26T13:33:34;2.50;;;0.20;;
80199;SDS011;69520;44.900;-0.764;2024-02-26T13:36:00;2.22;;;0.30;;
80199;SDS011;69520;44.900;-0.764;2024-02-26T13:38:27;3.67;;;0.20;;
80199;SDS011;69520;44.900;-0.764;2024-02-26T13:40:56;3.30;;;0.30;;
80199;SDS011;69520;44.900;-0.764;2024-02-26T13:43:22;5.85;;;0.35;;
80199;SDS011;69520;44.900;-0.764;2024-02-26T13:45:48;5.20;;;0.30;;
80199;SDS011;69520;44.900;-0.764;2024-02-26T13:48:14;3.78;;;0.25;;
80199;SDS011;69520;44.900;-0.764;2024-02-26T13:50:41;6.80;;;0.40;;
80199;SDS011;69520;44.900;-0.764;2024-02-26T13:53:10;5.15;;;0.40;;
80199;SDS011;69520;44.900;-0.764;2024-02-26T13:55:37;2.92;;;0.30;;
80199;SDS011;69520;44.900;-0.764;2024-02-26T13:58:03;4.07;;;0.50;;
80199;SDS011;69520;44.900;-0.764;2024-02-26T14:00:29;3.13;;;0.43;;
80199;SDS011;69520;44.900;-0.764;2024-02-26T14:03:00;2.83;;;0.38;;
80199;SDS011;69520;44.900;-0.764;2024-02-26T14:05:26;4.53;;;0.45;;
80199;SDS011;69520;44.900;-0.764;2024-02-26T14:07:52;4.82;;;0.50;;
80199;SDS011;69520;44.900;-0.764;2024-02-26T14:10:19;3.47;;;0.30;;
80199;SDS011;69520;44.900;-0.764;2024-02-26T14:12:45;1.90;;;0.20;;
80199;SDS011;69520;44.900;-0.764;2024-02-26T14:15:11;2.20;;;0.20;;
80199;SDS011;69520;44.900;-0.764;2024-02-26T14:17:37;1.13;;;0.10;;
80199;SDS011;69520;44.900;-0.764;2024-02-26T14:20:04;2.50;;;0.20;;
80199;SDS011;69520;44.900;-0.764;2024-02-26T14:22:30;1.40;;;0.20;;
80199;SDS011;69520;44.900;-0.764;2024-02-26T14:24:56;3.05;;;0.40;;
80199;SDS011;69520;44.900;-0.764;2024-02-26T14:27:23;4.80;;;0.40;;
80199;SDS011;69520;44.900;-0.764;2024-02-26T14:29:49;2.38;;;0.32;;
80199;SDS011;69520;44.900;-0.764;2024-02-26T14:32:15;3.55;;;0.40;;